createdAt,value
2018-11-11T00:00:21.716Z,8.41
2018-11-11T00:02:52.376Z,8.35
2018-11-11T00:05:22.016Z,8.30
2018-11-11T00:07:51.576Z,8.24
2018-11-11T00:10:21.070Z,8.18
2018-11-11T00:12:50.632Z,8.12
2018-11-11T00:15:20.133Z,8.06
2018-11-11T00:17:49.697Z,8.00
2018-11-11T00:20:19.248Z,7.96
2018-11-11T00:22:48.751Z,7.92
2018-11-11T00:25:18.350Z,7.87
2018-11-11T00:27:47.842Z,7.84
2018-11-11T00:30:18.559Z,7.81
2018-11-11T00:32:48.106Z,7.79
2018-11-11T00:35:17.659Z,7.76
2018-11-11T00:37:47.282Z,7.75
2018-11-11T00:40:17.186Z,7.72
2018-11-11T00:42:46.992Z,7.70
2018-11-11T00:45:16.922Z,7.68
2018-11-11T00:47:46.960Z,7.67
2018-11-11T00:50:16.523Z,7.66
2018-11-11T00:52:46.075Z,7.64
2018-11-11T00:55:16.863Z,7.63
2018-11-11T00:57:46.704Z,7.62
2018-11-11T01:00:17.458Z,7.60
2018-11-11T01:02:47.383Z,7.58
2018-11-11T01:05:16.955Z,7.57
2018-11-11T01:07:46.612Z,7.55
2018-11-11T01:10:17.074Z,7.53
2018-11-11T01:12:46.785Z,7.51
2018-11-11T01:15:17.068Z,6.81
2018-11-11T01:17:46.663Z,7.47
2018-11-11T01:20:17.231Z,7.44
2018-11-11T01:22:47.272Z,7.42
2018-11-11T01:25:17.632Z,7.39
2018-11-11T01:27:47.203Z,7.37
2018-11-11T01:30:16.732Z,7.35
2018-11-11T01:32:46.230Z,7.33
2018-11-11T01:35:16.745Z,7.31
2018-11-11T01:37:46.448Z,7.28
2018-11-11T01:40:16.142Z,7.27
2018-11-11T01:42:45.695Z,7.25
2018-11-11T01:45:16.855Z,7.23
2018-11-11T01:47:47.009Z,7.22
2018-11-11T01:50:16.714Z,7.20
2018-11-11T01:52:46.364Z,7.19
2018-11-11T01:55:15.968Z,7.19
2018-11-11T01:57:45.522Z,7.18
2018-11-11T02:00:17.596Z,7.17
2018-11-11T02:02:48.021Z,7.15
2018-11-11T02:05:17.632Z,7.14
2018-11-11T02:07:47.719Z,7.13
2018-11-11T02:10:17.304Z,7.12
2018-11-11T02:12:47.307Z,7.10
2018-11-11T02:15:17.631Z,7.09
2018-11-11T02:17:47.203Z,7.08
2018-11-11T02:20:17.995Z,7.07
2018-11-11T02:22:48.484Z,7.06
2018-11-11T02:25:18.050Z,7.05
2018-11-11T02:27:47.864Z,7.04
2018-11-11T02:30:21.444Z,7.03
2018-11-11T02:32:51.272Z,7.01
2018-11-11T02:35:20.850Z,7.01
2018-11-11T02:37:50.415Z,6.98
2018-11-11T02:40:20.551Z,6.97
2018-11-11T02:42:50.462Z,6.97
2018-11-11T02:45:20.611Z,6.94
2018-11-11T02:47:50.148Z,6.93
2018-11-11T02:50:20.426Z,6.91
2018-11-11T02:52:49.983Z,6.89
2018-11-11T02:55:19.528Z,6.87
2018-11-11T02:57:49.201Z,6.85
2018-11-11T03:00:20.811Z,6.83
2018-11-11T03:02:50.686Z,6.82
2018-11-11T03:05:20.531Z,6.81
2018-11-11T03:07:50.098Z,6.80
2018-11-11T03:10:19.770Z,6.80
2018-11-11T03:12:50.171Z,6.81
2018-11-11T03:15:20.049Z,6.78
2018-11-11T03:17:49.565Z,6.78
2018-11-11T03:20:19.482Z,6.76
2018-11-11T03:22:49.002Z,6.74
2018-11-11T03:25:18.870Z,6.72
2018-11-11T03:27:48.430Z,6.70
2018-11-11T03:30:18.586Z,6.68
2018-11-11T03:32:48.134Z,6.68
2018-11-11T03:35:17.729Z,6.67
2018-11-11T03:37:47.563Z,6.68
2018-11-11T03:40:18.385Z,6.72
2018-11-11T03:42:48.280Z,6.75
2018-11-11T03:45:18.964Z,6.81
2018-11-11T03:47:49.575Z,6.85
2018-11-11T03:50:19.300Z,6.87
2018-11-11T03:52:49.064Z,6.76
2018-11-11T03:55:18.792Z,6.69
2018-11-11T03:57:48.339Z,6.77
2018-11-11T04:00:18.209Z,6.81
2018-11-11T04:02:47.801Z,6.84
2018-11-11T04:05:18.006Z,6.85
2018-11-11T04:07:47.619Z,6.87
2018-11-11T04:10:18.510Z,6.90
2018-11-11T04:12:48.548Z,6.90
2018-11-11T04:15:19.343Z,6.87
2018-11-11T04:17:49.000Z,6.85
2018-11-11T04:20:19.782Z,6.84
2018-11-11T04:22:49.314Z,6.82
2018-11-11T04:25:19.411Z,6.80
2018-11-11T04:27:48.985Z,6.79
2018-11-11T04:30:18.578Z,6.75
2018-11-11T04:32:48.208Z,6.72
2018-11-11T04:35:17.768Z,6.67
2018-11-11T04:37:47.362Z,6.64
2018-11-11T04:40:16.898Z,6.61
2018-11-11T04:42:46.490Z,6.57
2018-11-11T04:45:16.832Z,6.54
2018-11-11T04:47:47.004Z,6.52
2018-11-11T04:50:17.545Z,6.50
2018-11-11T04:52:47.668Z,6.48
2018-11-11T04:55:17.231Z,6.46
2018-11-11T04:57:46.793Z,6.43
2018-11-11T05:00:16.419Z,6.42
2018-11-11T05:02:45.965Z,6.41
2018-11-11T05:05:15.566Z,6.40
2018-11-11T05:07:45.099Z,6.38
2018-11-11T05:10:14.765Z,5.96
2018-11-11T05:12:44.381Z,6.35
2018-11-11T05:15:14.572Z,6.33
2018-11-11T05:17:44.359Z,6.32
2018-11-11T05:20:14.288Z,6.32
2018-11-11T05:22:44.127Z,6.32
2018-11-11T05:25:14.763Z,6.32
2018-11-11T05:27:44.855Z,6.33
2018-11-11T05:30:14.959Z,6.35
2018-11-11T05:32:44.515Z,6.34
2018-11-11T05:35:14.114Z,6.36
2018-11-11T05:37:44.031Z,6.37
2018-11-11T05:40:14.192Z,6.39
2018-11-11T05:42:44.374Z,6.43
2018-11-11T05:45:15.027Z,6.46
2018-11-11T05:47:44.708Z,6.48
2018-11-11T05:50:15.320Z,6.53
2018-11-11T05:52:45.848Z,6.56
2018-11-11T05:55:15.439Z,6.63
2018-11-11T05:57:44.932Z,6.68
2018-11-11T06:00:15.794Z,6.74
2018-11-11T06:02:45.641Z,6.77
2018-11-11T06:05:15.983Z,6.83
2018-11-11T06:07:45.539Z,6.80
2018-11-11T06:10:15.655Z,6.91
2018-11-11T06:12:45.191Z,7.00
2018-11-11T06:15:15.225Z,7.04
2018-11-11T06:17:44.762Z,7.12
2018-11-11T06:20:15.528Z,7.23
2018-11-11T06:22:45.079Z,7.36
2018-11-11T06:25:14.663Z,7.43
2018-11-11T06:27:44.235Z,7.56
2018-11-11T06:30:14.048Z,7.71
2018-11-11T06:32:43.635Z,7.83
2018-11-11T06:35:13.200Z,7.94
2018-11-11T06:37:42.816Z,8.05
2018-11-11T06:40:13.716Z,8.16
2018-11-11T06:42:43.438Z,8.27
2018-11-11T06:45:14.270Z,8.38
2018-11-11T06:47:44.534Z,8.48
2018-11-11T06:50:15.012Z,8.58
2018-11-11T06:52:44.968Z,8.66
2018-11-11T06:55:14.603Z,8.76
2018-11-11T06:57:44.216Z,8.80
2018-11-11T07:00:14.995Z,8.91
2018-11-11T07:02:55.224Z,8.97
2018-11-11T07:05:24.782Z,9.09
2018-11-11T07:07:54.343Z,9.14
2018-11-11T07:10:23.858Z,9.23
2018-11-11T07:12:53.378Z,9.33
2018-11-11T07:15:23.022Z,9.35
2018-11-11T07:17:52.571Z,9.47
2018-11-11T07:20:22.115Z,9.57
2018-11-11T07:22:51.633Z,9.65
2018-11-11T07:25:21.167Z,9.75
2018-11-11T07:27:50.712Z,9.84
2018-11-11T07:30:20.317Z,9.83
2018-11-11T07:32:49.862Z,9.81
2018-11-11T07:35:19.429Z,9.87
2018-11-11T07:37:48.977Z,9.85
2018-11-11T07:40:18.560Z,9.85
2018-11-11T07:42:48.124Z,9.89
2018-11-11T07:45:17.676Z,9.99
2018-11-11T07:47:47.280Z,10.09
2018-11-11T07:50:16.787Z,10.18
2018-11-11T07:52:46.430Z,10.19
2018-11-11T07:55:15.956Z,10.29
2018-11-11T07:57:45.547Z,10.35
2018-11-11T08:00:15.304Z,10.41
2018-11-11T08:02:44.875Z,10.49
2018-11-11T08:05:15.328Z,10.59
2018-11-11T08:07:44.891Z,10.65
2018-11-11T08:10:25.343Z,10.66
2018-11-11T08:12:54.935Z,10.74
2018-11-11T08:15:24.453Z,10.85
2018-11-11T08:17:54.003Z,10.92
2018-11-11T08:20:23.608Z,11.02
2018-11-11T08:22:53.147Z,11.03
2018-11-11T08:25:22.717Z,11.08
2018-11-11T08:27:52.277Z,11.20
2018-11-11T08:30:21.823Z,11.26
2018-11-11T08:32:51.399Z,11.17
2018-11-11T08:35:20.927Z,11.22
2018-11-11T08:37:50.474Z,11.33
2018-11-11T08:40:20.057Z,11.36
2018-11-11T08:42:49.631Z,11.50
2018-11-11T08:45:19.151Z,11.60
2018-11-11T08:47:48.711Z,11.71
2018-11-11T08:50:18.272Z,11.82
2018-11-11T08:52:47.843Z,11.94
2018-11-11T08:55:17.377Z,12.04
2018-11-11T08:57:46.908Z,12.10
2018-11-11T09:00:16.711Z,12.18
2018-11-11T09:02:46.275Z,12.29
2018-11-11T09:05:15.873Z,12.36
2018-11-11T09:07:45.447Z,12.43
2018-11-11T09:10:15.007Z,12.48
2018-11-11T09:12:44.570Z,12.48
2018-11-11T09:15:15.068Z,12.57
2018-11-11T09:17:44.858Z,12.66
2018-11-11T09:20:15.435Z,12.75
2018-11-11T09:22:45.050Z,12.83
2018-11-11T09:25:14.614Z,12.86
2018-11-11T09:27:44.172Z,12.94
2018-11-11T09:30:14.967Z,13.02
2018-11-11T09:32:44.545Z,13.09
2018-11-11T09:35:14.158Z,13.17
2018-11-11T09:37:43.674Z,13.21
2018-11-11T09:40:13.690Z,13.25
2018-11-11T09:42:43.641Z,13.31
2018-11-11T09:45:14.551Z,13.33
2018-11-11T09:47:44.565Z,13.39
2018-11-11T09:50:15.795Z,13.38
2018-11-11T09:52:45.391Z,13.43
2018-11-11T09:55:15.242Z,13.40
2018-11-11T09:57:44.791Z,13.50
2018-11-11T10:00:19.144Z,13.57
2018-11-11T10:02:54.470Z,13.63
2018-11-11T10:05:30.565Z,13.71
2018-11-11T10:08:04.311Z,13.77
2018-11-11T10:10:38.964Z,13.85
2018-11-11T10:15:16.482Z,13.76
2018-11-11T10:17:58.462Z,13.89
2018-11-11T10:21:35.871Z,13.96
2018-11-11T10:24:11.270Z,14.04
2018-11-11T10:27:52.216Z,14.08
2018-11-11T10:30:27.787Z,13.38
2018-11-11T10:35:15.239Z,14.11
2018-11-11T10:37:48.920Z,14.23
2018-11-11T10:40:25.076Z,14.29
2018-11-11T10:42:59.667Z,14.29
2018-11-11T10:45:34.572Z,14.29
2018-11-11T10:48:06.739Z,14.32
2018-11-11T10:50:39.980Z,14.34
2018-11-11T10:53:09.597Z,14.35
2018-11-11T10:55:39.189Z,14.41
2018-11-11T10:58:08.742Z,14.46
2018-11-11T11:00:43.414Z,14.50
2018-11-11T11:03:17.939Z,14.54
2018-11-11T11:05:47.480Z,14.48
2018-11-11T11:08:17.031Z,14.50
2018-11-11T11:10:46.601Z,14.57
2018-11-11T11:13:16.219Z,14.63
2018-11-11T11:15:45.706Z,14.69
2018-11-11T11:18:15.290Z,14.68
2018-11-11T11:20:44.973Z,14.65
2018-11-11T11:23:14.512Z,14.69
2018-11-11T11:25:44.115Z,14.66
2018-11-11T11:28:13.683Z,14.72
2018-11-11T11:30:43.239Z,14.79
2018-11-11T11:33:12.751Z,14.85
2018-11-11T11:35:42.404Z,14.90
2018-11-11T11:38:11.986Z,14.94
2018-11-11T11:40:41.479Z,14.98
2018-11-11T11:43:11.036Z,15.01
2018-11-11T11:45:40.580Z,15.04
2018-11-11T11:48:10.148Z,15.05
2018-11-11T11:50:39.674Z,15.05
2018-11-11T11:53:09.200Z,15.01
2018-11-11T11:55:38.787Z,15.05
2018-11-11T11:58:17.323Z,15.08
2018-11-11T12:00:46.814Z,15.09
2018-11-11T12:03:16.633Z,15.12
2018-11-11T12:05:46.922Z,15.13
2018-11-11T12:08:16.468Z,15.16
2018-11-11T12:10:45.983Z,15.20
2018-11-11T12:13:16.275Z,15.20
2018-11-11T12:15:45.938Z,15.18
2018-11-11T12:18:15.479Z,15.19
2018-11-11T12:20:45.009Z,15.18
2018-11-11T12:23:14.627Z,15.18
2018-11-11T12:25:44.198Z,15.20
2018-11-11T12:28:13.753Z,15.21
2018-11-11T12:30:43.382Z,15.21
2018-11-11T12:33:12.891Z,15.25
2018-11-11T12:35:42.481Z,15.23
2018-11-11T12:38:12.051Z,15.24
2018-11-11T12:40:41.584Z,15.27
2018-11-11T12:43:11.143Z,15.28
2018-11-11T12:45:40.696Z,15.26
2018-11-11T12:48:10.248Z,15.25
2018-11-11T12:50:39.751Z,15.23
2018-11-11T12:53:09.293Z,15.25
2018-11-11T12:55:38.839Z,15.24
2018-11-11T12:58:08.387Z,15.23
2018-11-11T13:00:37.959Z,15.21
2018-11-11T13:03:07.554Z,15.21
2018-11-11T13:05:37.077Z,15.21
2018-11-11T13:08:06.756Z,15.22
2018-11-11T13:10:36.232Z,15.20
2018-11-11T13:13:06.059Z,15.20
2018-11-11T13:15:35.582Z,15.21
2018-11-11T13:18:05.238Z,15.20
2018-11-11T13:20:34.787Z,15.21
2018-11-11T13:23:04.425Z,15.19
2018-11-11T13:25:33.951Z,15.19
2018-11-11T13:28:03.497Z,15.20
2018-11-11T13:30:32.988Z,15.20
2018-11-11T13:33:02.559Z,15.20
2018-11-11T13:35:32.118Z,15.17
2018-11-11T13:38:01.719Z,15.16
2018-11-11T13:40:31.329Z,15.16
2018-11-11T13:43:00.902Z,15.14
2018-11-11T13:45:30.394Z,15.14
2018-11-11T13:47:59.936Z,15.12
2018-11-11T13:50:29.474Z,15.08
2018-11-11T13:52:58.988Z,15.06
2018-11-11T13:55:28.556Z,15.04
2018-11-11T13:57:58.131Z,15.01
2018-11-11T14:00:28.489Z,14.98
2018-11-11T14:02:58.196Z,14.95
2018-11-11T14:05:27.720Z,14.92
2018-11-11T14:07:57.341Z,14.91
2018-11-11T14:10:26.916Z,14.87
2018-11-11T14:12:56.451Z,14.16
2018-11-11T14:15:26.376Z,14.83
2018-11-11T14:17:56.533Z,14.79
2018-11-11T14:20:26.549Z,14.73
2018-11-11T14:22:56.711Z,14.70
2018-11-11T14:25:28.622Z,14.66
2018-11-11T14:27:58.151Z,14.59
2018-11-11T14:30:28.531Z,14.55
2018-11-11T14:32:58.957Z,14.49
2018-11-11T14:35:28.503Z,14.43
2018-11-11T14:37:58.169Z,14.38
2018-11-11T14:40:28.980Z,14.32
2018-11-11T14:42:58.658Z,14.25
2018-11-11T14:45:28.411Z,14.18
2018-11-11T14:47:58.392Z,14.12
2018-11-11T14:50:28.050Z,14.07
2018-11-11T14:52:57.608Z,14.01
2018-11-11T14:55:29.173Z,13.93
2018-11-11T14:57:59.701Z,13.86
2018-11-11T15:00:30.397Z,13.77
2018-11-11T15:03:04.189Z,13.68
2018-11-11T15:05:33.814Z,13.58
2018-11-11T15:08:03.588Z,13.48
2018-11-11T15:10:33.219Z,13.40
2018-11-11T15:13:02.930Z,13.30
2018-11-11T15:15:32.446Z,13.22
2018-11-11T15:18:02.338Z,13.13
2018-11-11T15:20:32.168Z,13.05
2018-11-11T15:23:01.677Z,12.98
2018-11-11T15:25:31.764Z,12.91
2018-11-11T15:28:01.225Z,12.85
2018-11-11T15:30:32.219Z,12.77
2018-11-11T15:33:02.232Z,12.69
2018-11-11T15:35:31.801Z,12.59
2018-11-11T15:38:01.407Z,12.50
2018-11-11T15:40:32.316Z,12.42
2018-11-11T15:43:02.010Z,12.34
2018-11-11T15:45:32.907Z,12.27
2018-11-11T15:48:02.650Z,12.19
2018-11-11T15:50:33.206Z,12.10
2018-11-11T15:53:04.050Z,12.01
2018-11-11T15:55:34.697Z,11.94
2018-11-11T15:58:04.320Z,11.88
2018-11-11T16:00:35.160Z,11.81
2018-11-11T16:03:04.806Z,11.73
2018-11-11T16:05:34.335Z,11.67
2018-11-11T16:08:04.227Z,11.61
2018-11-11T16:10:34.451Z,11.53
2018-11-11T16:13:04.036Z,11.45
2018-11-11T16:15:35.157Z,11.39
2018-11-11T16:18:06.296Z,11.31
2018-11-11T16:20:35.866Z,11.25
2018-11-11T16:23:06.291Z,11.20
2018-11-11T16:25:36.214Z,11.14
2018-11-11T16:28:05.963Z,11.09
2018-11-11T16:30:36.635Z,10.32
2018-11-11T16:33:07.683Z,10.99
2018-11-11T16:35:37.317Z,10.91
2018-11-11T16:38:07.249Z,10.87
2018-11-11T16:40:37.725Z,10.83
2018-11-11T16:43:07.339Z,10.78
2018-11-11T16:45:37.760Z,10.75
2018-11-11T16:48:07.690Z,10.71
2018-11-11T16:50:37.892Z,10.67
2018-11-11T16:53:09.001Z,10.63
2018-11-11T16:55:38.969Z,10.60
2018-11-11T16:58:08.504Z,10.56
2018-11-11T17:00:38.622Z,10.50
2018-11-11T17:03:08.973Z,10.46
2018-11-11T17:05:39.082Z,10.41
2018-11-11T17:08:08.616Z,10.37
2018-11-11T17:10:38.848Z,10.33
2018-11-11T17:13:09.977Z,10.32
2018-11-11T17:15:39.556Z,10.28
2018-11-11T17:18:09.108Z,10.23
2018-11-11T17:20:38.783Z,9.58
2018-11-11T17:23:08.832Z,10.05
2018-11-11T17:25:38.380Z,10.14
2018-11-11T17:28:08.125Z,10.10
2018-11-11T17:30:37.657Z,9.27
2018-11-11T17:33:07.324Z,10.01
2018-11-11T17:35:36.824Z,9.97
2018-11-11T17:38:06.535Z,9.93
2018-11-11T17:40:36.078Z,9.88
2018-11-11T17:43:05.936Z,9.83
2018-11-11T17:45:35.545Z,9.79
2018-11-11T17:48:05.100Z,9.73
2018-11-11T17:50:34.820Z,9.68
2018-11-11T17:53:05.599Z,9.64
2018-11-11T17:55:35.243Z,9.59
2018-11-11T17:58:04.876Z,9.55
2018-11-11T18:00:34.446Z,9.49
2018-11-11T18:03:04.292Z,9.43
2018-11-11T18:05:33.815Z,9.35
2018-11-11T18:08:03.421Z,9.31
2018-11-11T18:10:33.023Z,9.26
2018-11-11T18:13:02.539Z,9.21
2018-11-11T18:15:32.755Z,9.15
2018-11-11T18:18:02.259Z,9.10
2018-11-11T18:20:33.063Z,9.06
2018-11-11T18:23:03.225Z,9.02
2018-11-11T18:25:32.927Z,9.01
2018-11-11T18:28:02.784Z,8.99
2018-11-11T18:30:34.246Z,8.97
2018-11-11T18:33:03.819Z,8.93
2018-11-11T18:35:33.313Z,8.93
2018-11-11T18:38:02.886Z,8.91
2018-11-11T18:40:32.406Z,8.89
2018-11-11T18:43:01.939Z,8.86
2018-11-11T18:45:31.678Z,8.84
2018-11-11T18:48:01.332Z,8.83
2018-11-11T18:50:32.206Z,8.80
2018-11-11T18:53:02.015Z,8.79
2018-11-11T18:55:31.607Z,8.79
2018-11-11T18:58:01.389Z,8.81
2018-11-11T19:00:32.147Z,8.78
2018-11-11T19:03:01.716Z,8.78
2018-11-11T19:05:31.326Z,8.85
2018-11-11T19:08:00.860Z,8.90
2018-11-11T19:10:31.952Z,8.90
2018-11-11T19:13:03.685Z,8.90
2018-11-11T19:15:33.215Z,8.92
2018-11-11T19:18:02.812Z,8.91
2018-11-11T19:20:32.323Z,8.89
2018-11-11T19:23:01.886Z,8.87
2018-11-11T19:25:31.937Z,8.86
2018-11-11T19:28:02.303Z,8.84
2018-11-11T19:30:32.554Z,8.80
2018-11-11T19:33:02.094Z,8.78
2018-11-11T19:35:31.602Z,8.75
2018-11-11T19:38:01.162Z,8.73
2018-11-11T19:40:31.000Z,8.71
2018-11-11T19:43:01.448Z,8.68
2018-11-11T19:45:31.776Z,8.66
2018-11-11T19:48:01.400Z,8.64
2018-11-11T19:50:31.145Z,8.61
2018-11-11T19:53:00.883Z,8.58
2018-11-11T19:55:30.396Z,8.56
2018-11-11T19:57:59.972Z,8.53
2018-11-11T20:00:30.739Z,8.50
2018-11-11T20:03:01.248Z,8.47
2018-11-11T20:05:30.981Z,8.43
2018-11-11T20:08:01.337Z,8.41
2018-11-11T20:10:31.395Z,8.37
2018-11-11T20:13:01.561Z,8.34
2018-11-11T20:15:32.438Z,8.30
2018-11-11T20:18:02.003Z,8.26
2018-11-11T20:20:33.964Z,8.22
2018-11-11T20:23:03.569Z,8.17
2018-11-11T20:25:33.081Z,8.11
2018-11-11T20:28:02.701Z,8.07
2018-11-11T20:30:33.572Z,8.05
2018-11-11T20:33:03.120Z,8.02
2018-11-11T20:35:33.164Z,7.98
2018-11-11T20:38:02.772Z,7.95
2018-11-11T20:40:32.346Z,7.91
2018-11-11T20:43:01.954Z,7.88
2018-11-11T20:45:32.864Z,7.85
2018-11-11T20:48:02.406Z,7.82
2018-11-11T20:50:32.978Z,7.80
2018-11-11T20:53:03.763Z,7.77
2018-11-11T20:55:33.321Z,7.76
2018-11-11T20:58:03.081Z,7.73
2018-11-11T21:00:34.834Z,7.71
2018-11-11T21:03:04.464Z,7.71
2018-11-11T21:05:34.038Z,7.70
2018-11-11T21:08:03.591Z,7.70
2018-11-11T21:10:33.222Z,7.66
2018-11-11T21:13:02.842Z,7.64
2018-11-11T21:15:32.655Z,7.62
2018-11-11T21:18:02.199Z,7.60
2018-11-11T21:20:32.794Z,7.57
2018-11-11T21:23:02.384Z,7.55
2018-11-11T21:25:31.964Z,7.53
2018-11-11T21:28:01.662Z,7.51
2018-11-11T21:30:32.095Z,7.49
2018-11-11T21:33:01.743Z,7.48
2018-11-11T21:35:31.310Z,7.46
2018-11-11T21:38:00.901Z,7.43
2018-11-11T21:40:30.424Z,7.41
2018-11-11T21:43:00.001Z,7.39
2018-11-11T21:45:29.910Z,7.36
2018-11-11T21:47:59.511Z,7.34
2018-11-11T21:50:29.335Z,7.31
2018-11-11T21:53:39.389Z,7.28
2018-11-11T21:56:09.205Z,7.26
2018-11-11T21:58:38.819Z,7.23
2018-11-11T22:01:08.344Z,7.20
2018-11-11T22:03:37.997Z,7.19
2018-11-11T22:06:07.509Z,7.18
2018-11-11T22:08:37.071Z,7.16
2018-11-11T22:11:06.930Z,7.15
2018-11-11T22:13:36.474Z,7.13
2018-11-11T22:16:06.130Z,7.12
2018-11-11T22:18:35.834Z,7.11
2018-11-11T22:21:05.562Z,7.10
2018-11-11T22:23:35.050Z,7.09
2018-11-11T22:26:04.626Z,7.08
2018-11-11T22:28:34.191Z,7.08
2018-11-11T22:31:03.772Z,7.07
2018-11-11T22:33:33.313Z,7.07
2018-11-11T22:36:02.850Z,7.03
2018-11-11T22:38:32.423Z,6.99
2018-11-11T22:41:01.944Z,6.97
2018-11-11T22:43:31.564Z,6.95
2018-11-11T22:46:01.089Z,6.90
2018-11-11T22:48:30.679Z,6.89
2018-11-11T22:51:00.189Z,6.84
2018-11-11T22:53:29.726Z,6.82
2018-11-11T22:55:59.316Z,6.86
2018-11-11T22:58:28.864Z,6.88
2018-11-11T23:01:03.414Z,6.87
2018-11-11T23:03:32.983Z,6.81
2018-11-11T23:06:02.572Z,6.81
2018-11-11T23:08:32.138Z,6.83
2018-11-11T23:11:01.687Z,6.87
2018-11-11T23:13:31.196Z,6.89
2018-11-11T23:16:00.843Z,6.90
2018-11-11T23:18:30.377Z,6.90
2018-11-11T23:20:59.964Z,6.89
2018-11-11T23:23:29.530Z,6.89
2018-11-11T23:25:59.081Z,6.90
2018-11-11T23:28:28.691Z,6.88
2018-11-11T23:30:58.303Z,6.88
2018-11-11T23:33:27.864Z,6.87
2018-11-11T23:35:57.380Z,6.87
2018-11-11T23:38:26.936Z,6.86
2018-11-11T23:40:56.466Z,6.86
2018-11-11T23:43:26.028Z,6.85
2018-11-11T23:45:55.630Z,6.84
2018-11-11T23:48:25.171Z,6.85
2018-11-11T23:50:54.718Z,6.83
2018-11-11T23:53:24.223Z,6.81
2018-11-11T23:55:53.803Z,6.82
2018-11-11T23:58:23.312Z,6.80
